Time;durP1;ratioP1;P1;durP2;ratioP2;P2;SDS_P1;SDS_P2;PMS_P1;PMS_P2;Temp;Humidity;BMP_temperature;BMP_pressure;BME280_temperature;BME280_humidity;BME280_pressure;Samples;Min_cycle;Max_cycle;Signal;HPM_P1;HPM_P2
2023/01/22 00:00:27;;;;;;;36.90;18.60;;;;;;;3.09;90.38;101022.08;131842;1248;107551;-74
2023/01/22 00:03:53;;;;;;;40.20;21.70;;;;;;;3.03;90.22;101024.85;131648;1247;106923;-73
2023/01/22 00:06:59;;;;;;;41.30;21.10;;;;;;;3.03;90.35;101027.01;131634;1253;107510;-75
2023/01/22 00:10:05;;;;;;;32.60;16.80;;;;;;;3.03;90.33;101023.46;131716;1261;106553;-74
2023/01/22 00:13:10;;;;;;;35.10;18.90;;;;;;;3.04;90.42;101021.30;131649;1253;107570;-74
2023/01/22 00:16:17;;;;;;;36.50;18.30;;;;;;;3.06;90.38;101019.24;131798;1251;107224;-74
2023/01/22 00:19:23;;;;;;;35.90;19.00;;;;;;;3.07;90.31;101019.86;131631;1248;108618;-74
2023/01/22 00:22:29;;;;;;;34.50;18.60;;;;;;;3.07;90.24;101024.09;131710;1260;107733;-75
2023/01/22 00:25:35;;;;;;;35.60;18.50;;;;;;;3.04;90.28;101024.26;131886;1252;107533;-74
2023/01/22 00:28:41;;;;;;;37.60;18.00;;;;;;;2.99;90.36;101025.95;131725;1252;107463;-75
2023/01/22 00:31:47;;;;;;;33.40;18.20;;;;;;;2.96;90.35;101029.64;131608;1247;106688;-76
2023/01/22 00:34:53;;;;;;;32.80;16.90;;;;;;;2.93;90.42;101028.75;131712;1247;107577;-75
2023/01/22 00:37:59;;;;;;;34.80;18.10;;;;;;;2.94;90.46;101034.30;131667;1252;107588;-74
2023/01/22 00:41:07;;;;;;;37.60;19.20;;;;;;;2.98;90.56;101033.77;131812;1247;107413;-75
2023/01/22 00:44:12;;;;;;;38.40;19.60;;;;;;;2.99;90.23;101037.38;132084;1250;107520;-74
2023/01/22 00:47:18;;;;;;;39.40;21.00;;;;;;;2.99;90.31;101041.64;131757;1252;109945;-73
2023/01/22 00:50:23;;;;;;;45.90;23.70;;;;;;;2.98;90.24;101042.03;131899;1247;107342;-74
2023/01/22 00:53:29;;;;;;;40.90;19.50;;;;;;;2.96;90.56;101042.84;131934;1253;107546;-74
2023/01/22 00:56:35;;;;;;;39.90;18.70;;;;;;;2.96;90.45;101043.02;131866;1255;107380;-75
2023/01/22 00:59:40;;;;;;;36.50;17.90;;;;;;;2.97;90.31;101050.13;131931;1253;106383;-73
2023/01/22 01:06:13;;;;;;;39.40;20.80;;;;;;;3.02;90.55;101058.14;131796;1251;108363;-73
2023/01/22 01:09:19;;;;;;;39.10;19.30;;;;;;;3.03;90.36;101058.27;131826;1253;107600;-72
2023/01/22 01:12:24;;;;;;;36.40;18.50;;;;;;;3.02;90.48;101061.48;131759;1253;108106;-73
2023/01/22 01:15:30;;;;;;;40.80;19.10;;;;;;;3.00;90.32;101060.01;131752;1253;107915;-73
2023/01/22 01:18:36;;;;;;;37.50;17.50;;;;;;;2.97;90.36;101061.41;131731;1257;107537;-74
2023/01/22 01:21:42;;;;;;;39.70;19.10;;;;;;;2.95;90.36;101063.42;131890;1252;106827;-76
2023/01/22 01:24:47;;;;;;;34.20;17.20;;;;;;;2.97;90.30;101066.67;131959;1252;107545;-72
2023/01/22 01:27:54;;;;;;;35.00;18.10;;;;;;;3.00;90.50;101064.40;131970;1252;107398;-75
2023/01/22 01:31:05;;;;;;;33.00;17.20;;;;;;;3.03;90.35;101064.05;131725;1251;107377;-75
2023/01/22 01:34:11;;;;;;;35.20;17.50;;;;;;;3.06;90.26;101065.13;131754;1257;107552;-72
2023/01/22 01:37:17;;;;;;;35.40;17.10;;;;;;;3.05;90.32;101076.75;131894;1254;106914;-76
2023/01/22 01:40:23;;;;;;;40.10;20.20;;;;;;;3.04;90.24;101078.08;131684;1248;107523;-73
2023/01/22 01:43:29;;;;;;;34.70;16.50;;;;;;;3.01;90.27;101080.36;131746;1253;107355;-74
2023/01/22 01:46:39;;;;;;;39.30;17.80;;;;;;;2.98;90.22;101081.38;131720;1252;107940;-73
2023/01/22 01:49:51;;;;;;;32.00;15.20;;;;;;;2.99;90.23;101087.30;131596;1248;107523;-73
2023/01/22 01:52:59;;;;;;;39.80;18.50;;;;;;;3.02;90.32;101083.43;131626;1253;107540;-74
2023/01/22 01:56:10;;;;;;;40.30;19.70;;;;;;;3.05;90.26;101084.00;131735;1251;107459;-73
2023/01/22 01:59:19;;;;;;;34.50;17.30;;;;;;;3.07;90.29;101084.94;131679;1252;107475;-75
2023/01/22 02:02:26;;;;;;;31.30;15.90;;;;;;;3.08;90.33;101077.65;131585;1253;107930;-75
2023/01/22 02:05:37;;;;;;;31.80;16.10;;;;;;;3.06;90.21;101074.96;131747;1252;107634;-73
2023/01/22 02:08:47;;;;;;;34.80;16.60;;;;;;;3.00;90.27;101075.29;131682;1248;109150;-76
2023/01/22 02:11:53;;;;;;;33.20;16.20;;;;;;;2.97;90.34;101074.04;131615;1262;107523;-74
2023/01/22 02:15:00;;;;;;;30.70;14.60;;;;;;;2.99;90.35;101077.98;131747;1253;107522;-74
2023/01/22 02:18:08;;;;;;;35.70;16.30;;;;;;;3.03;90.32;101082.19;131797;1253;107527;-74
2023/01/22 02:21:35;;;;;;;32.80;16.40;;;;;;;3.05;90.41;101079.08;131579;1253;107914;-73
2023/01/22 02:24:41;;;;;;;34.00;16.30;;;;;;;3.08;90.31;101079.94;131856;1253;107535;-74
2023/01/22 02:27:47;;;;;;;33.00;17.20;;;;;;;3.09;90.22;101083.25;131778;1253;107507;-73
2023/01/22 02:30:53;;;;;;;32.80;16.90;;;;;;;3.08;90.22;101086.27;131731;1251;107603;-74
2023/01/22 02:34:00;;;;;;;37.30;17.90;;;;;;;3.06;90.24;101087.12;131567;1247;107476;-73
2023/01/22 02:37:07;;;;;;;39.80;17.70;;;;;;;2.99;90.27;101084.86;131728;1253;107459;-73
2023/01/22 02:40:14;;;;;;;40.20;19.10;;;;;;;2.98;90.54;101092.46;131764;1254;107531;-74
2023/01/22 02:43:20;;;;;;;35.30;17.70;;;;;;;2.99;90.35;101095.41;131880;1257;107505;-74
2023/01/22 02:46:26;;;;;;;35.90;16.60;;;;;;;3.00;90.26;101094.80;131603;1253;106525;-74
2023/01/22 02:49:31;;;;;;;37.30;18.50;;;;;;;3.00;90.33;101098.65;131752;1247;107728;-78
2023/01/22 02:52:37;;;;;;;30.90;16.70;;;;;;;3.00;90.19;101099.02;131737;1247;107352;-73
2023/01/22 02:55:49;;;;;;;35.90;19.60;;;;;;;2.98;90.31;101104.26;131806;1252;107473;-71
2023/01/22 02:58:55;;;;;;;36.50;18.20;;;;;;;2.96;90.35;101104.16;131801;1247;107215;-72
2023/01/22 03:02:00;;;;;;;39.50;18.00;;;;;;;2.96;90.31;101108.41;131564;1254;107539;-74
2023/01/22 03:05:07;;;;;;;34.70;17.80;;;;;;;2.95;90.36;101111.77;131610;1253;107120;-73
2023/01/22 03:08:15;;;;;;;30.50;15.10;;;;;;;2.93;90.25;101109.24;131616;1253;106395;-74
2023/01/22 03:11:21;;;;;;;29.90;16.60;;;;;;;2.92;90.10;101107.37;131718;1248;108776;-73
2023/01/22 03:21:17;;;;;;;36.70;17.80;;;;;;;2.91;90.25;101113.76;131712;1252;108066;-74
2023/01/22 03:24:23;;;;;;;39.10;18.50;;;;;;;2.89;90.33;101120.02;131759;1251;108480;-74
2023/01/22 03:27:30;;;;;;;38.80;19.10;;;;;;;2.87;90.32;101130.28;131498;1253;107380;-74
2023/01/22 03:30:36;;;;;;;36.80;18.50;;;;;;;2.89;90.31;101133.02;131527;1248;107251;-75
2023/01/22 03:33:42;;;;;;;30.20;14.90;;;;;;;2.88;90.17;101133.92;131635;1250;107478;-72
2023/01/22 03:36:48;;;;;;;38.50;18.90;;;;;;;2.90;90.20;101123.84;131590;1253;106588;-75
2023/01/22 03:39:56;;;;;;;39.50;18.60;;;;;;;2.91;90.16;101119.03;131647;1253;107846;-74
2023/01/22 03:43:13;;;;;;;39.80;18.90;;;;;;;2.88;90.10;101118.65;131921;1253;106534;-73
2023/01/22 03:46:21;;;;;;;36.10;17.60;;;;;;;2.81;90.17;101114.98;131865;1253;106435;-72
2023/01/22 03:49:32;;;;;;;39.10;18.30;;;;;;;2.73;90.18;101121.55;131731;1248;107454;-73
2023/01/22 03:52:38;;;;;;;38.80;18.10;;;;;;;2.71;90.46;101131.50;131764;1253;107082;-73
2023/01/22 03:55:43;;;;;;;36.50;18.20;;;;;;;2.68;90.57;101131.11;131672;1253;107576;-72
2023/01/22 03:58:50;;;;;;;33.50;16.30;;;;;;;2.68;90.63;101133.41;131775;1253;106693;-74
2023/01/22 04:01:56;;;;;;;32.60;17.10;;;;;;;2.71;90.48;101140.77;131606;1252;107469;-72
2023/01/22 04:05:01;;;;;;;33.60;17.40;;;;;;;2.76;90.34;101142.83;131742;1247;107407;-73
2023/01/22 04:08:07;;;;;;;37.30;18.10;;;;;;;2.80;90.36;101150.20;131744;1253;108708;-75
2023/01/22 04:11:14;;;;;;;35.20;16.50;;;;;;;2.75;90.30;101151.13;131780;1253;107450;-73
2023/01/22 04:14:20;;;;;;;35.20;17.40;;;;;;;2.72;90.37;101155.33;131731;1253;118353;-74
2023/01/22 04:17:35;;;;;;;36.70;18.10;;;;;;;2.70;90.42;101161.22;131920;1253;107502;-73
2023/01/22 04:20:54;;;;;;;32.80;15.90;;;;;;;2.71;90.46;101161.20;131845;1253;107520;-73
2023/01/22 04:24:09;;;;;;;29.10;15.00;;;;;;;2.73;90.44;101162.15;131843;1253;107469;-74
2023/01/22 04:27:16;;;;;;;34.00;17.20;;;;;;;2.77;90.30;101169.16;131666;1251;107461;-75
2023/01/22 04:30:22;;;;;;;29.90;16.20;;;;;;;2.81;90.31;101168.03;131574;1253;107450;-73
2023/01/22 04:33:34;;;;;;;29.40;15.70;;;;;;;2.83;90.15;101176.40;131570;1253;107489;-73
2023/01/22 04:36:45;;;;;;;31.70;16.60;;;;;;;2.84;90.30;101176.17;131858;1248;107420;-73
2023/01/22 04:39:52;;;;;;;30.90;16.30;;;;;;;2.82;90.17;101179.44;131608;1253;108830;-74
2023/01/22 04:43:02;;;;;;;31.80;15.90;;;;;;;2.76;89.99;101176.75;131685;1253;107410;-72
2023/01/22 04:46:07;;;;;;;31.50;15.10;;;;;;;2.72;90.33;101179.02;131523;1248;107588;-73
2023/01/22 04:49:13;;;;;;;27.40;13.60;;;;;;;2.70;90.31;101178.09;131618;1248;107622;-74
2023/01/22 04:52:20;;;;;;;30.40;15.60;;;;;;;2.74;90.35;101180.14;131764;1248;108643;-73
2023/01/22 04:55:27;;;;;;;27.00;14.10;;;;;;;2.79;90.20;101184.70;131797;1253;107387;-74
2023/01/22 04:58:40;;;;;;;26.30;14.20;;;;;;;2.80;90.19;101189.19;131787;1253;107530;-73
2023/01/22 05:01:49;;;;;;;28.10;14.20;;;;;;;2.81;90.14;101188.25;131788;1248;107527;-75
2023/01/22 05:04:55;;;;;;;27.90;14.80;;;;;;;2.80;90.10;101195.55;131796;1253;107438;-73
2023/01/22 05:08:01;;;;;;;27.80;14.00;;;;;;;2.78;90.15;101194.23;131879;1250;107517;-73
2023/01/22 05:11:08;;;;;;;27.30;13.60;;;;;;;2.77;90.15;101203.76;131748;1253;106549;-72
2023/01/22 05:14:31;;;;;;;27.40;15.70;;;;;;;2.79;89.96;101207.73;131687;1253;107504;-73
2023/01/22 05:17:36;;;;;;;25.50;13.50;;;;;;;2.81;90.05;101202.84;131605;1253;107510;-73
2023/01/22 05:20:42;;;;;;;23.70;13.40;;;;;;;2.85;90.11;101208.98;131597;1247;107493;-73
2023/01/22 05:23:49;;;;;;;30.80;16.90;;;;;;;2.84;89.97;101211.46;131664;1247;107442;-72
2023/01/22 05:26:55;;;;;;;24.90;13.90;;;;;;;2.83;90.22;101215.59;131674;1252;107445;-73
2023/01/22 05:30:13;;;;;;;24.20;12.50;;;;;;;2.81;90.10;101213.77;131552;1253;107913;-74
2023/01/22 05:33:35;;;;;;;25.10;12.10;;;;;;;2.74;89.78;101217.60;131714;1253;107879;-76
2023/01/22 05:36:41;;;;;;;21.00;11.40;;;;;;;2.70;90.13;101216.90;131704;1253;108585;-73
2023/01/22 05:39:54;;;;;;;20.90;10.60;;;;;;;2.71;90.05;101214.41;131800;1247;107636;-73
2023/01/22 05:43:02;;;;;;;20.60;11.30;;;;;;;2.73;90.02;101218.17;131818;1252;107539;-73
2023/01/22 05:46:09;;;;;;;20.00;11.80;;;;;;;2.73;90.05;101225.39;131923;1248;107424;-73
2023/01/22 05:49:29;;;;;;;20.90;12.10;;;;;;;2.73;89.98;101224.84;131994;1253;107519;-72
2023/01/22 05:52:36;;;;;;;19.90;11.60;;;;;;;2.72;89.80;101229.48;131869;1247;107659;-73
2023/01/22 05:55:41;;;;;;;20.60;11.10;;;;;;;2.68;89.91;101233.57;131834;1253;107541;-73
2023/01/22 05:58:47;;;;;;;21.80;11.70;;;;;;;2.64;90.07;101234.97;132176;1254;107560;-75
2023/01/22 06:01:53;;;;;;;21.10;11.30;;;;;;;2.64;90.00;101238.69;131941;1252;107521;-73
2023/01/22 06:04:59;;;;;;;18.40;10.30;;;;;;;2.67;89.98;101240.79;131842;1253;106683;-73
2023/01/22 06:08:05;;;;;;;24.70;12.50;;;;;;;2.71;90.09;101244.27;131892;1253;108963;-74
2023/01/22 06:11:18;;;;;;;21.30;12.30;;;;;;;2.75;89.96;101252.66;131938;1254;107957;-73
2023/01/22 06:14:24;;;;;;;20.60;12.10;;;;;;;2.76;89.83;101251.08;131925;1263;107535;-74
2023/01/22 06:17:30;;;;;;;20.50;11.10;;;;;;;2.76;90.04;101250.38;131923;1253;107382;-73
2023/01/22 06:20:39;;;;;;;19.80;11.80;;;;;;;2.73;89.74;101250.88;131855;1254;107816;-74
2023/01/22 06:23:46;;;;;;;22.60;12.50;;;;;;;2.67;89.74;101250.80;131946;1253;107434;-72
2023/01/22 06:26:52;;;;;;;19.20;11.60;;;;;;;2.65;90.10;101257.91;132045;1253;108593;-72
2023/01/22 06:29:58;;;;;;;16.50;9.30;;;;;;;2.68;89.95;101268.30;131732;1253;107901;-73
2023/01/22 06:33:05;;;;;;;21.20;11.20;;;;;;;2.69;89.96;101270.05;132016;1247;107356;-73
2023/01/22 06:36:11;;;;;;;21.00;12.60;;;;;;;2.70;89.91;101273.15;131974;1248;107487;-74
2023/01/22 06:39:18;;;;;;;21.40;12.70;;;;;;;2.73;90.01;101276.50;131887;1253;107885;-74
2023/01/22 06:42:31;;;;;;;23.40;14.40;;;;;;;2.75;89.96;101277.80;131661;1254;107492;-72
2023/01/22 06:45:39;;;;;;;22.20;13.30;;;;;;;2.75;89.90;101278.18;131750;1261;108632;-74
2023/01/22 06:48:46;;;;;;;29.60;14.90;;;;;;;2.72;89.79;101284.83;131794;1253;107504;-73
2023/01/22 06:51:53;;;;;;;24.20;13.30;;;;;;;2.70;89.86;101287.04;131751;1254;107894;-73
2023/01/22 06:54:58;;;;;;;20.40;10.70;;;;;;;2.70;89.92;101289.66;131698;1258;107280;-73
2023/01/22 06:58:05;;;;;;;22.70;12.60;;;;;;;2.72;89.79;101294.48;131912;1252;107457;-74
2023/01/22 07:01:12;;;;;;;24.60;13.50;;;;;;;2.74;89.87;101296.11;131841;1252;107897;-75
2023/01/22 07:04:18;;;;;;;23.90;13.40;;;;;;;2.76;89.84;101292.00;131936;1253;107193;-74
2023/01/22 07:07:23;;;;;;;22.40;13.50;;;;;;;2.75;89.81;101297.31;131896;1253;107522;-73
2023/01/22 07:10:29;;;;;;;23.90;12.90;;;;;;;2.74;90.02;101299.81;131905;1256;107500;-73
2023/01/22 07:13:35;;;;;;;27.60;15.80;;;;;;;2.73;89.70;101302.70;131786;1253;107488;-77
2023/01/22 07:16:41;;;;;;;27.00;15.40;;;;;;;2.72;89.84;101308.55;131770;1248;107453;-72
2023/01/22 07:19:46;;;;;;;22.60;12.70;;;;;;;2.72;89.84;101311.54;131954;1248;107330;-74
2023/01/22 07:22:52;;;;;;;23.30;13.40;;;;;;;2.73;89.83;101310.95;131989;1254;107368;-73
2023/01/22 07:25:57;;;;;;;23.10;13.10;;;;;;;2.78;89.90;101319.16;132109;1253;107560;-74
2023/01/22 07:29:03;;;;;;;24.50;14.20;;;;;;;2.80;89.75;101323.80;131985;1257;107563;-75
2023/01/22 07:32:08;;;;;;;26.00;16.20;;;;;;;2.81;89.77;101326.01;131942;1254;107557;-73
2023/01/22 07:35:14;;;;;;;22.90;13.80;;;;;;;2.81;89.67;101328.64;131765;1254;106506;-73
2023/01/22 07:38:21;;;;;;;27.70;15.30;;;;;;;2.78;89.65;101332.17;131904;1260;107791;-73
2023/01/22 07:41:27;;;;;;;32.00;17.00;;;;;;;2.77;89.82;101335.02;131742;1257;108427;-74
2023/01/22 07:44:33;;;;;;;27.30;14.70;;;;;;;2.81;89.90;101341.85;131879;1253;107471;-75
2023/01/22 07:47:39;;;;;;;29.20;15.70;;;;;;;2.89;89.77;101339.88;131715;1260;106895;-75
2023/01/22 07:50:45;;;;;;;25.30;14.00;;;;;;;2.94;89.67;101342.93;131734;1248;107347;-72
2023/01/22 07:53:51;;;;;;;24.40;14.00;;;;;;;2.95;89.53;101338.35;131817;1254;107530;-72
2023/01/22 07:56:57;;;;;;;27.30;14.80;;;;;;;2.96;89.70;101340.37;131847;1254;106413;-75
2023/01/22 08:00:03;;;;;;;26.30;14.50;;;;;;;2.98;89.54;101347.68;131653;1267;107648;-74
2023/01/22 08:03:18;;;;;;;28.40;16.50;;;;;;;2.95;89.40;101348.16;131700;1252;107504;-74
2023/01/22 08:06:23;;;;;;;32.60;18.40;;;;;;;2.91;89.60;101351.91;131588;1253;107445;-74
2023/01/22 08:09:29;;;;;;;28.20;15.60;;;;;;;2.88;89.56;101361.34;131699;1261;107451;-75
2023/01/22 08:12:36;;;;;;;24.80;12.60;;;;;;;2.90;89.73;101366.69;131695;1251;107394;-76
2023/01/22 08:15:42;;;;;;;25.40;13.80;;;;;;;2.95;89.53;101365.95;131853;1254;107301;-75
2023/01/22 08:18:48;;;;;;;24.40;14.30;;;;;;;2.98;89.71;101368.04;131972;1254;107518;-73
2023/01/22 08:21:53;;;;;;;33.10;17.40;;;;;;;3.02;89.58;101369.45;132018;1248;107450;-74
2023/01/22 08:25:03;;;;;;;29.10;16.50;;;;;;;3.02;89.50;101371.91;131854;1247;108669;-77
2023/01/22 08:28:17;;;;;;;30.60;17.20;;;;;;;3.02;89.36;101377.15;131715;1254;108103;-77
2023/01/22 08:31:28;;;;;;;31.40;17.40;;;;;;;3.01;89.55;101374.58;131590;1263;107529;-75
2023/01/22 08:34:47;;;;;;;35.40;17.90;;;;;;;3.01;89.52;101378.27;131980;1250;108619;-76
2023/01/22 08:38:00;;;;;;;28.30;15.60;;;;;;;3.00;89.70;101386.95;131668;1257;109944;-74
2023/01/22 08:41:06;;;;;;;29.10;15.20;;;;;;;3.02;89.51;101386.82;132106;1252;107630;-74
2023/01/22 08:44:16;;;;;;;44.40;19.70;;;;;;;3.03;89.30;101385.02;132074;1248;108552;-73
2023/01/22 08:47:23;;;;;;;41.50;19.70;;;;;;;3.06;89.38;101393.13;132297;1254;107897;-76
2023/01/22 08:50:32;;;;;;;41.40;22.20;;;;;;;3.09;89.33;101394.04;131927;1254;107439;-75
2023/01/22 08:53:51;;;;;;;34.20;19.30;;;;;;;3.08;89.38;101394.08;132356;1252;107471;-76
2023/01/22 08:56:57;;;;;;;29.80;17.00;;;;;;;3.08;89.38;101402.86;132026;1247;107769;-75
2023/01/22 09:00:03;;;;;;;33.70;17.90;;;;;;;3.07;89.48;101411.21;132095;1247;107504;-75
2023/01/22 09:03:09;;;;;;;32.70;16.10;;;;;;;3.05;89.26;101410.40;131919;1253;107494;-76
2023/01/22 09:06:15;;;;;;;31.10;16.60;;;;;;;3.04;89.38;101411.88;132130;1248;107512;-71
2023/01/22 09:09:21;;;;;;;36.50;19.00;;;;;;;3.07;89.50;101409.95;132145;1253;108645;-75
2023/01/22 09:12:26;;;;;;;37.10;20.40;;;;;;;3.14;89.51;101407.34;131712;1264;107220;-75
2023/01/22 09:15:32;;;;;;;34.30;18.10;;;;;;;3.20;89.39;101412.16;132218;1253;107894;-79
2023/01/22 09:18:37;;;;;;;37.20;19.60;;;;;;;3.21;89.28;101411.35;131982;1253;106541;-75
2023/01/22 09:21:43;;;;;;;35.40;18.40;;;;;;;3.20;89.19;101416.03;131928;1253;106931;-76
2023/01/22 09:24:50;;;;;;;35.00;18.30;;;;;;;3.15;89.23;101419.58;131726;1248;109726;-74
2023/01/22 09:27:59;;;;;;;36.90;19.80;;;;;;;3.13;89.07;101424.24;132189;1253;107564;-75
2023/01/22 09:31:07;;;;;;;32.30;17.00;;;;;;;3.12;89.37;101423.21;131847;1261;107475;-80
2023/01/22 09:34:13;;;;;;;30.10;16.50;;;;;;;3.13;89.24;101423.89;132369;1248;106785;-78
2023/01/22 09:37:18;;;;;;;32.10;18.40;;;;;;;3.12;89.15;101430.61;131651;1247;107543;-79
2023/01/22 09:40:28;;;;;;;33.30;18.20;;;;;;;3.14;89.30;101425.43;131847;1253;107457;-81
2023/01/22 09:43:40;;;;;;;33.40;17.50;;;;;;;3.15;88.94;101427.13;131948;1248;107498;-81
2023/01/22 09:46:49;;;;;;;36.20;18.90;;;;;;;3.15;89.18;101432.21;132259;1248;107394;-81
2023/01/22 09:50:00;;;;;;;33.90;17.50;;;;;;;3.14;89.14;101433.70;131832;1254;110136;-79
2023/01/22 09:53:09;;;;;;;32.60;17.30;;;;;;;3.13;89.09;101429.88;131733;1253;107404;-76
2023/01/22 09:56:20;;;;;;;34.30;17.70;;;;;;;3.14;89.32;101432.99;132435;1248;109337;-80
2023/01/22 09:59:30;;;;;;;29.50;16.30;;;;;;;3.19;89.18;101433.85;131984;1248;108685;-81
2023/01/22 10:02:41;;;;;;;30.90;17.70;;;;;;;3.21;88.98;101430.39;132231;1254;107531;-81
2023/01/22 10:05:51;;;;;;;32.30;17.90;;;;;;;3.21;88.89;101432.16;131769;1248;109199;-82
2023/01/22 10:09:03;;;;;;;36.50;19.00;;;;;;;3.20;89.05;101430.95;132018;1248;107421;-78
2023/01/22 10:12:13;;;;;;;36.20;19.70;;;;;;;3.18;88.98;101424.76;132089;1252;107624;-79
2023/01/22 10:15:22;;;;;;;34.30;18.60;;;;;;;3.17;89.08;101428.13;131834;1254;107711;-79
2023/01/22 10:18:34;;;;;;;35.70;19.00;;;;;;;3.19;88.89;101421.89;131812;1254;109028;-83
2023/01/22 10:21:44;;;;;;;36.00;20.30;;;;;;;3.23;89.11;101418.13;131908;1249;109391;-77
2023/01/22 10:24:50;;;;;;;36.10;19.50;;;;;;;3.31;88.97;101418.06;131778;1253;108726;-77
2023/01/22 10:28:03;;;;;;;33.40;18.80;;;;;;;3.39;88.87;101415.77;132175;1252;107421;-78
2023/01/22 10:31:19;;;;;;;;;;;;;;;3.41;88.77;101412.50;132004;1260;107231;-78
2023/01/22 10:34:31;;;;;;;30.80;17.00;;;;;;;3.42;88.61;101409.61;132453;1248;107519;-79
2023/01/22 10:37:46;;;;;;;35.30;18.70;;;;;;;3.42;88.70;101412.95;131981;1248;108184;-77
2023/01/22 10:40:57;;;;;;;33.70;19.20;;;;;;;3.40;88.66;101412.89;131885;1253;108119;-78
2023/01/22 10:44:20;;;;;;;31.40;17.20;;;;;;;3.38;88.63;101411.02;132026;1253;106154;-79
2023/01/22 10:47:27;;;;;;;36.50;18.80;;;;;;;3.38;88.61;101413.33;131853;1248;107551;-78
2023/01/22 10:50:33;;;;;;;31.80;17.10;;;;;;;3.40;88.44;101413.23;131903;1248;107349;-78
2023/01/22 10:53:45;;;;;;;33.40;19.00;;;;;;;3.42;88.74;101416.63;131946;1248;107360;-78
2023/01/22 10:56:53;;;;;;;40.10;21.50;;;;;;;3.47;88.60;101414.96;132088;1247;107479;-77
2023/01/22 11:00:19;;;;;;;34.70;19.50;;;;;;;3.49;88.47;101412.94;131922;1257;107516;-77
2023/01/22 11:03:31;;;;;;;33.60;19.00;;;;;;;3.48;88.35;101409.32;131913;1254;107495;-77
2023/01/22 11:06:42;;;;;;;29.40;17.60;;;;;;;3.46;88.42;101411.84;131787;1248;107457;-77
2023/01/22 11:09:53;;;;;;;32.10;17.70;;;;;;;3.43;88.38;101415.54;131652;1252;106661;-78
2023/01/22 11:13:04;;;;;;;32.10;16.90;;;;;;;3.38;88.28;101413.70;131898;1254;107486;-75
2023/01/22 11:16:15;;;;;;;36.00;19.30;;;;;;;3.35;88.29;101412.09;131791;1254;107429;-78
2023/01/22 11:19:24;;;;;;;39.00;20.80;;;;;;;3.36;88.51;101416.79;132294;1254;107353;-77
2023/01/22 11:22:35;;;;;;;36.50;20.40;;;;;;;3.39;88.41;101415.58;131810;1254;107452;-77
2023/01/22 11:25:44;;;;;;;40.10;21.20;;;;;;;3.43;88.46;101410.11;132088;1248;107877;-79
2023/01/22 11:28:59;;;;;;;36.90;20.50;;;;;;;3.42;88.05;101409.77;133316;1248;107500;-79
2023/01/22 11:32:25;;;;;;;42.20;23.50;;;;;;;3.37;88.36;101405.13;132001;1248;107424;-78
2023/01/22 11:35:40;;;;;;;40.40;21.80;;;;;;;3.38;88.38;101405.23;131921;1248;107866;-77
2023/01/22 11:38:50;;;;;;;37.40;21.90;;;;;;;3.39;88.26;101407.64;131926;1253;107984;-78
2023/01/22 11:42:05;;;;;;;43.10;22.20;;;;;;;3.38;88.36;101408.05;132016;1254;108768;-77
2023/01/22 11:45:27;;;;;;;36.80;20.80;;;;;;;3.38;88.31;101408.75;131984;1254;107599;-79
2023/01/22 11:48:57;;;;;;;34.90;18.70;;;;;;;3.40;88.07;101403.77;131829;1248;107474;-78
2023/01/22 11:52:21;;;;;;;36.50;20.80;;;;;;;3.40;88.25;101405.52;131832;1248;108100;-80
2023/01/22 11:55:46;;;;;;;41.20;24.00;;;;;;;3.44;88.24;101407.73;131845;1253;107435;-79
2023/01/22 11:58:57;;;;;;;40.50;22.70;;;;;;;3.44;87.90;101410.55;131758;1248;107581;-78
2023/01/22 12:02:37;;;;;;;40.70;23.90;;;;;;;3.42;88.03;101410.66;131870;1248;107473;-78
2023/01/22 12:05:51;;;;;;;40.80;23.10;;;;;;;3.40;87.90;101414.12;131760;1248;107259;-78
2023/01/22 12:09:10;;;;;;;34.50;20.00;;;;;;;3.32;87.72;101419.07;132118;1248;105917;-81
2023/01/22 12:12:31;;;;;;;35.50;19.90;;;;;;;3.27;87.70;101424.25;132205;1252;107462;-81
2023/01/22 12:15:44;;;;;;;33.60;18.80;;;;;;;3.22;87.86;101423.12;132002;1254;108665;-80
2023/01/22 12:19:21;;;;;;;32.50;17.60;;;;;;;3.22;87.69;101415.36;131839;1248;107506;-80
2023/01/22 12:22:33;;;;;;;35.20;18.80;;;;;;;3.29;87.62;101420.13;132195;1248;107600;-79
2023/01/22 12:25:48;;;;;;;34.10;19.20;;;;;;;3.31;87.73;101421.05;131884;1247;107535;-80
2023/01/22 12:29:02;;;;;;;35.70;19.60;;;;;;;3.32;87.57;101418.92;131891;1254;108657;-77
2023/01/22 12:32:11;;;;;;;34.80;19.60;;;;;;;3.28;87.58;101416.10;131985;1247;107391;-78
2023/01/22 12:35:18;;;;;;;34.00;19.00;;;;;;;3.27;87.39;101414.41;132064;1254;107473;-78
2023/01/22 12:38:36;;;;;;;38.50;22.40;;;;;;;3.25;87.50;101411.39;131849;1251;108768;-77
2023/01/22 12:41:47;;;;;;;32.30;18.20;;;;;;;3.25;87.69;101410.13;131690;1251;107548;-78
2023/01/22 12:45:05;;;;;;;37.70;20.40;;;;;;;3.23;87.41;101413.39;131779;1248;108823;-78
2023/01/22 12:48:23;;;;;;;36.00;20.40;;;;;;;3.24;87.50;101419.50;131841;1247;107466;-77
2023/01/22 12:51:35;;;;;;;38.50;21.40;;;;;;;3.29;87.45;101424.02;132080;1254;107525;-76
2023/01/22 12:54:42;;;;;;;42.00;23.60;;;;;;;3.35;87.54;101428.61;132223;1247;107657;-75
2023/01/22 12:57:48;;;;;;;38.50;21.70;;;;;;;3.39;87.60;101430.68;132065;1248;107532;-79
2023/01/22 13:01:04;;;;;;;37.40;22.30;;;;;;;3.41;87.54;101431.50;131997;1248;107516;-77
2023/01/22 13:04:13;;;;;;;37.40;22.00;;;;;;;3.42;87.40;101437.38;131980;1253;107592;-76
2023/01/22 13:07:32;;;;;;;36.00;21.30;;;;;;;3.41;87.37;101440.48;131935;1247;107894;-76
2023/01/22 13:10:38;;;;;;;36.00;20.80;;;;;;;3.37;87.28;101444.89;132141;1253;107568;-75
2023/01/22 13:13:49;;;;;;;36.40;20.40;;;;;;;3.33;87.23;101446.80;132390;1248;107198;-74
2023/01/22 13:16:58;;;;;;;36.20;20.30;;;;;;;3.32;87.32;101448.44;132312;1252;109025;-74
2023/01/22 13:20:04;;;;;;;35.90;21.00;;;;;;;3.35;87.15;101448.16;132637;1247;107510;-74
2023/01/22 13:23:13;;;;;;;35.10;19.80;;;;;;;3.37;87.01;101449.48;134109;1248;107281;-73
2023/01/22 13:26:21;;;;;;;36.40;21.30;;;;;;;3.35;86.99;101457.48;132538;1248;107663;-75
2023/01/22 13:29:31;;;;;;;33.60;20.20;;;;;;;3.33;87.17;101454.02;131821;1254;108520;-74
2023/01/22 13:32:37;;;;;;;33.00;20.50;;;;;;;3.29;87.18;101450.20;132016;1253;107498;-75
2023/01/22 13:35:44;;;;;;;36.10;21.30;;;;;;;3.26;87.12;101454.73;131994;1248;107284;-72
2023/01/22 13:38:54;;;;;;;31.40;18.30;;;;;;;3.22;86.94;101458.09;131798;1260;107487;-77
2023/01/22 13:42:03;;;;;;;31.20;18.20;;;;;;;3.17;87.19;101459.92;132024;1248;107856;-73
2023/01/22 13:45:20;;;;;;;32.80;17.50;;;;;;;3.17;87.29;101466.81;132129;1247;107533;-74
2023/01/22 13:48:27;;;;;;;36.20;20.90;;;;;;;3.17;87.39;101464.85;131936;1248;107382;-74
2023/01/22 13:51:38;;;;;;;39.50;21.20;;;;;;;3.19;87.36;101459.48;132033;1247;109845;-73
2023/01/22 13:54:48;;;;;;;32.20;19.40;;;;;;;3.20;87.25;101454.02;131957;1248;107544;-75
2023/01/22 13:57:55;;;;;;;31.80;18.00;;;;;;;3.12;86.93;101458.96;131760;1248;107557;-75
2023/01/22 14:01:03;;;;;;;33.00;18.20;;;;;;;3.03;87.04;101459.23;131864;1262;107726;-76
2023/01/22 14:04:26;;;;;;;34.30;19.60;;;;;;;2.98;87.37;101451.20;131914;1247;107382;-72
2023/01/22 14:07:34;;;;;;;32.40;17.90;;;;;;;2.91;87.23;101450.81;131922;1247;107336;-72
2023/01/22 14:10:41;;;;;;;29.90;16.40;;;;;;;2.83;87.43;101454.38;131986;1250;107274;-73
2023/01/22 14:13:49;;;;;;;31.50;16.10;;;;;;;2.81;87.38;101461.69;131878;1253;107441;-75
2023/01/22 14:16:54;;;;;;;32.90;18.10;;;;;;;2.82;87.45;101469.89;131914;1253;106205;-72
2023/01/22 14:20:01;;;;;;;31.10;17.70;;;;;;;2.84;87.27;101474.52;131786;1247;107244;-73